Time;durP1;ratioP1;P1;durP2;ratioP2;P2;SDS_P1;SDS_P2;PMS_P1;PMS_P2;Temp;Humidity;BMP_temperature;BMP_pressure;BME280_temperature;BME280_humidity;BME280_pressure;Samples;Min_cycle;Max_cycle;Signal;HPM_P1;HPM_P2
2022/02/12 00:01:00;;;;;;;25.65;8.55;;;;;;;6.68;47.81;94546.06;5065695;28;20098;-76
2022/02/12 00:03:26;;;;;;;39.85;10.32;;;;;;;6.62;47.84;94543.41;5065901;28;20311;-76
2022/02/12 00:05:51;;;;;;;27.70;9.20;;;;;;;6.65;47.71;94534.13;5065813;28;20032;-76
2022/02/12 00:08:17;;;;;;;26.48;8.30;;;;;;;6.69;47.58;94547.63;5065868;28;20024;-76
2022/02/12 00:10:42;;;;;;;15.15;6.05;;;;;;;6.74;47.59;94550.28;5065634;28;20044;-76
2022/02/12 00:13:11;;;;;;;13.68;5.93;;;;;;;6.76;46.87;94553.44;5065599;28;20229;-76
2022/02/12 00:15:40;;;;;;;16.10;6.57;;;;;;;6.75;47.07;94552.63;5065961;28;20029;-77
2022/02/12 00:18:06;;;;;;;14.45;6.57;;;;;;;6.77;47.81;94555.03;5066218;28;20100;-77
2022/02/12 00:20:32;;;;;;;9.00;5.22;;;;;;;6.77;46.97;94557.66;5065531;28;20025;-77
2022/02/12 00:22:57;;;;;;;20.35;6.60;;;;;;;6.80;47.17;94552.63;5065736;28;20024;-77
2022/02/12 00:25:23;;;;;;;15.25;7.00;;;;;;;6.71;47.07;94564.06;5065826;28;20029;-78
2022/02/12 00:27:48;;;;;;;14.35;7.25;;;;;;;6.60;47.21;94561.44;5065843;28;20036;-78
2022/02/12 00:30:14;;;;;;;14.48;5.85;;;;;;;6.58;47.25;94563.56;5065962;28;20380;-78
2022/02/12 00:32:39;;;;;;;10.15;5.05;;;;;;;6.55;47.13;94561.44;5065898;28;20342;-78
2022/02/12 00:35:05;;;;;;;11.30;5.18;;;;;;;6.54;47.11;94562.53;5065827;28;20024;-78
2022/02/12 00:37:31;;;;;;;14.45;6.15;;;;;;;6.51;47.31;94565.69;5065839;28;20025;-77
2022/02/12 00:39:57;;;;;;;16.00;6.10;;;;;;;6.48;46.84;94566.25;5065713;28;20359;-78
2022/02/12 00:42:23;;;;;;;13.98;5.68;;;;;;;6.40;46.85;94572.09;5065284;28;20021;-77
2022/02/12 00:44:49;;;;;;;10.90;4.47;;;;;;;6.39;46.55;94575.78;5097680;28;20021;-77
2022/02/12 00:47:14;;;;;;;12.32;5.07;;;;;;;6.42;46.65;94575.28;5065169;28;20028;-77
2022/02/12 00:49:39;;;;;;;14.02;4.72;;;;;;;6.45;46.53;94580.00;5065882;28;20307;-77
2022/02/12 00:52:05;;;;;;;12.60;4.18;;;;;;;6.46;46.36;94586.91;5065776;28;20192;-77
2022/02/12 00:54:32;;;;;;;12.43;4.80;;;;;;;6.50;46.02;94577.38;5065185;28;20361;-77
2022/02/12 00:56:59;;;;;;;21.08;7.57;;;;;;;6.51;46.23;94583.44;5064010;28;20033;-76
2022/02/12 00:59:24;;;;;;;22.08;7.57;;;;;;;6.47;46.02;94579.75;5065040;28;20033;-76
2022/02/12 01:01:50;;;;;;;18.98;6.75;;;;;;;6.47;46.15;94591.13;5064969;28;20032;-77
2022/02/12 01:04:16;;;;;;;12.85;5.35;;;;;;;6.50;45.90;94593.25;5064982;28;20021;-76
2022/02/12 01:06:41;;;;;;;13.02;4.72;;;;;;;6.49;46.46;94586.34;5065249;28;20025;-76
2022/02/12 01:09:06;;;;;;;16.30;5.95;;;;;;;6.52;46.56;94590.34;5064028;28;20280;-77
2022/02/12 01:11:32;;;;;;;13.60;4.28;;;;;;;6.46;47.46;94591.41;5065093;28;20079;-76
2022/02/12 01:13:57;;;;;;;13.43;5.47;;;;;;;6.31;47.73;94600.16;5063747;28;20021;-76
2022/02/12 01:16:23;;;;;;;16.58;7.28;;;;;;;6.06;49.06;94601.78;5065221;28;20076;-78
2022/02/12 01:18:48;;;;;;;34.13;14.13;;;;;;;5.83;50.48;94600.47;5065014;28;20025;-78
2022/02/12 01:21:14;;;;;;;32.67;12.43;;;;;;;5.59;51.40;94598.31;5064703;28;20074;-77
2022/02/12 01:23:39;;;;;;;25.83;11.82;;;;;;;5.52;51.88;94610.22;5064781;28;20051;-77
2022/02/12 01:26:05;;;;;;;28.38;13.07;;;;;;;5.37;52.27;94603.03;5064773;28;20315;-77
2022/02/12 01:28:30;;;;;;;27.75;10.75;;;;;;;5.35;53.07;94610.44;5064486;28;20029;-77
2022/02/12 01:30:56;;;;;;;26.00;10.05;;;;;;;5.27;53.04;94606.47;5064487;28;20088;-77
2022/02/12 01:33:22;;;;;;;20.45;8.75;;;;;;;5.15;52.75;94616.47;5064338;28;20372;-77
2022/02/12 01:35:47;;;;;;;20.13;9.18;;;;;;;5.06;52.94;94618.03;5064238;28;20027;-77
2022/02/12 01:38:13;;;;;;;17.30;8.07;;;;;;;4.99;53.59;94613.00;5064168;28;20021;-77
2022/02/12 01:40:38;;;;;;;23.33;7.07;;;;;;;4.96;53.33;94611.66;5064514;28;20095;-78
2022/02/12 01:43:07;;;;;;;18.92;6.13;;;;;;;5.00;52.31;94617.22;5064212;28;20021;-77
2022/02/12 01:45:33;;;;;;;16.23;6.63;;;;;;;5.01;51.77;94622.25;5063086;28;20314;-77
2022/02/12 01:47:59;;;;;;;17.45;5.70;;;;;;;5.00;51.54;94625.94;5064066;28;20029;-77
2022/02/12 01:50:25;;;;;;;13.23;4.57;;;;;;;4.94;51.50;94619.03;5064303;28;20021;-77
2022/02/12 01:52:51;;;;;;;9.48;4.38;;;;;;;4.96;51.47;94624.88;5063996;28;20223;-76
2022/02/12 01:55:18;;;;;;;8.50;3.60;;;;;;;4.90;51.34;94622.47;5063722;28;20047;-77
2022/02/12 01:57:44;;;;;;;10.00;3.67;;;;;;;4.82;51.44;94624.56;5063863;28;20032;-77
2022/02/12 02:00:13;;;;;;;8.60;3.17;;;;;;;4.73;51.64;94625.31;5063860;28;20214;-76
2022/02/12 02:02:38;;;;;;;9.48;4.03;;;;;;;4.75;51.58;94629.28;5064194;28;20049;-77
2022/02/12 02:05:14;;;;;;;5.65;2.83;;;;;;;4.67;51.46;94626.34;5063700;28;20044;-76
2022/02/12 02:07:42;;;;;;;5.93;2.65;;;;;;;4.79;51.40;94630.34;5063248;28;20016;-76
2022/02/12 02:10:08;;;;;;;10.63;3.13;;;;;;;4.76;51.39;94635.34;5063957;28;20052;-78
2022/02/12 02:12:35;;;;;;;6.93;2.92;;;;;;;4.79;51.24;94640.13;5063449;28;20381;-78
2022/02/12 02:15:01;;;;;;;5.65;2.67;;;;;;;4.83;51.02;94635.91;5063606;28;20286;-78
2022/02/12 02:17:26;;;;;;;9.27;2.90;;;;;;;4.87;50.74;94650.19;5063654;28;20020;-78
2022/02/12 02:19:52;;;;;;;11.65;2.85;;;;;;;4.93;50.48;94651.81;5063613;28;20028;-78
2022/02/12 02:22:24;;;;;;;9.95;3.28;;;;;;;4.99;50.37;94655.28;5063311;28;20025;-78
2022/02/12 02:24:49;;;;;;;9.07;3.63;;;;;;;5.00;50.42;94656.84;5063620;28;20020;-78
2022/02/12 02:27:15;;;;;;;4.85;2.80;;;;;;;5.00;50.23;94657.63;5063340;28;20223;-77
2022/02/12 02:29:42;;;;;;;8.85;3.20;;;;;;;5.07;49.90;94657.41;5063574;28;20067;-78
2022/02/12 02:32:10;;;;;;;5.72;2.58;;;;;;;5.13;49.77;94655.56;5063249;28;20064;-77
2022/02/12 02:34:37;;;;;;;7.43;2.92;;;;;;;5.15;49.61;94658.75;5063230;28;20020;-77
2022/02/12 02:37:03;;;;;;;6.95;2.60;;;;;;;5.20;49.48;94656.94;5063121;28;20074;-77
2022/02/12 02:39:28;;;;;;;7.05;2.97;;;;;;;5.21;49.38;94653.25;5063153;28;20323;-77
2022/02/12 02:41:53;;;;;;;11.30;3.15;;;;;;;5.28;49.42;94650.34;5063023;28;20028;-77
2022/02/12 02:44:19;;;;;;;5.63;2.50;;;;;;;5.31;49.17;94657.78;5062904;28;20020;-77
2022/02/12 02:46:45;;;;;;;7.75;2.55;;;;;;;5.34;49.11;94654.59;5063096;28;20099;-77
2022/02/12 02:49:11;;;;;;;6.50;3.75;;;;;;;5.38;49.04;94658.31;5062998;28;20025;-77
2022/02/12 02:57:05;;;;;;;7.93;3.05;;;;;;;5.50;48.90;94662.59;5062872;28;20261;-77
2022/02/12 02:59:31;;;;;;;6.65;2.90;;;;;;;5.54;48.70;94668.94;5062861;28;20025;-77
2022/02/12 03:01:56;;;;;;;6.13;2.70;;;;;;;5.57;48.68;94673.69;5061387;28;20215;-77
2022/02/12 03:04:23;;;;;;;4.88;2.42;;;;;;;5.66;48.53;94682.72;5062781;28;20317;-77
2022/02/12 03:06:49;;;;;;;7.38;3.10;;;;;;;5.61;48.93;94688.75;5062866;28;20220;-77
2022/02/12 03:09:14;;;;;;;8.68;2.92;;;;;;;5.57;49.27;94685.06;5062485;28;20021;-77
2022/02/12 03:11:40;;;;;;;5.00;2.80;;;;;;;5.50;49.42;94686.38;5061238;28;20064;-76
2022/02/12 03:14:06;;;;;;;6.25;3.17;;;;;;;5.43;49.68;94687.41;5062354;28;20071;-76
2022/02/12 03:16:31;;;;;;;6.13;2.80;;;;;;;5.28;50.12;94683.94;5062571;28;20036;-76
2022/02/12 03:18:58;;;;;;;8.57;3.40;;;;;;;5.25;50.19;94679.97;5061696;28;20315;-77
2022/02/12 03:21:23;;;;;;;8.32;3.05;;;;;;;5.20;50.46;94677.28;5062327;28;20092;-76
2022/02/12 03:23:49;;;;;;;11.55;4.03;;;;;;;5.19;50.60;94688.91;5062358;28;20024;-76
2022/02/12 03:26:16;;;;;;;7.82;2.50;;;;;;;5.21;51.07;94694.72;5062343;28;20025;-76
2022/02/12 03:28:41;;;;;;;11.77;3.90;;;;;;;5.20;51.29;94693.94;5062510;28;20021;-76
2022/02/12 03:31:07;;;;;;;8.07;3.13;;;;;;;5.14;51.66;94705.53;5062389;28;20054;-76
2022/02/12 03:33:33;;;;;;;8.02;2.88;;;;;;;5.19;51.48;94713.50;5062331;28;20036;-76
2022/02/12 03:35:59;;;;;;;9.40;4.22;;;;;;;5.24;51.67;94715.34;5062080;28;20051;-77
2022/02/12 03:38:27;;;;;;;11.90;4.13;;;;;;;5.26;52.34;94720.41;5062064;28;20025;-76
2022/02/12 03:40:57;;;;;;;14.25;4.18;;;;;;;5.23;52.81;94724.31;5062072;28;20028;-77
2022/02/12 03:43:23;;;;;;;12.00;3.83;;;;;;;5.19;52.72;94728.53;5062178;28;20096;-77
2022/02/12 03:45:49;;;;;;;9.90;3.95;;;;;;;5.13;53.12;94727.75;5062043;28;20027;-76
2022/02/12 03:48:15;;;;;;;11.85;4.55;;;;;;;5.09;53.55;94723.19;5062288;28;20092;-76
2022/02/12 03:50:40;;;;;;;10.45;4.07;;;;;;;5.13;53.43;94732.22;5061748;28;20013;-76
2022/02/12 03:53:07;;;;;;;7.47;3.53;;;;;;;5.15;53.31;94730.09;5062067;28;20041;-76
2022/02/12 03:55:37;;;;;;;7.15;3.97;;;;;;;5.18;53.11;94737.53;5062117;28;20036;-75
2022/02/12 03:58:04;;;;;;;7.00;3.95;;;;;;;5.13;53.32;94734.84;5061966;28;20129;-75
2022/02/12 04:00:30;;;;;;;7.07;3.63;;;;;;;5.14;53.55;94731.16;5061782;28;20033;-75
2022/02/12 04:02:57;;;;;;;11.38;4.55;;;;;;;5.18;53.51;94737.53;5062057;28;20027;-75
2022/02/12 04:05:23;;;;;;;12.63;4.43;;;;;;;5.16;54.27;94737.78;5061821;28;20219;-75
2022/02/12 04:07:48;;;;;;;9.50;4.38;;;;;;;5.17;54.64;94741.22;5060669;28;20028;-75
2022/02/12 04:10:16;;;;;;;11.27;5.35;;;;;;;5.12;54.80;94747.28;5062132;28;20021;-76
2022/02/12 04:12:43;;;;;;;8.50;3.63;;;;;;;5.15;54.66;94753.88;5061708;28;20247;-76
2022/02/12 04:15:10;;;;;;;14.07;5.07;;;;;;;5.22;54.76;94751.81;5060735;28;20020;-77
2022/02/12 04:17:36;;;;;;;12.40;4.63;;;;;;;5.30;54.60;94767.19;5061728;28;20083;-76
2022/02/12 04:20:10;;;;;;;14.90;4.65;;;;;;;5.28;55.19;94774.59;5061611;28;20315;-76
2022/02/12 04:22:37;;;;;;;13.38;5.28;;;;;;;5.28;54.83;94777.22;5061588;28;20270;-76
2022/02/12 04:25:05;;;;;;;13.65;4.57;;;;;;;5.20;55.14;94777.72;5061695;28;20350;-77
2022/02/12 04:27:31;;;;;;;11.90;5.28;;;;;;;5.14;55.38;94791.94;5061650;28;20024;-76
2022/02/12 04:29:57;;;;;;;13.35;4.80;;;;;;;5.04;55.74;94792.69;5062852;28;20020;-76
2022/02/12 04:32:22;;;;;;;19.50;7.25;;;;;;;4.77;57.66;94798.84;5065489;28;20020;-76
2022/02/12 04:34:52;;;;;;;16.95;8.18;;;;;;;4.52;59.57;94815.28;5065202;28;20219;-76
2022/02/12 04:37:20;;;;;;;21.63;10.10;;;;;;;4.31;61.74;94824.84;5065299;28;20024;-76
2022/02/12 04:39:46;;;;;;;21.83;10.93;;;;;;;4.10;63.48;94831.00;5065503;28;20021;-77
2022/02/12 04:42:12;;;;;;;18.88;9.93;;;;;;;3.95;64.42;94831.63;5065126;28;20020;-77
2022/02/12 04:44:48;;;;;;;24.33;10.50;;;;;;;3.92;64.66;94826.84;5064913;28;20309;-77
2022/02/12 04:47:15;;;;;;;20.30;10.52;;;;;;;3.90;64.84;94834.19;5065362;28;20029;-77
2022/02/12 04:49:40;;;;;;;27.13;11.75;;;;;;;3.92;64.47;94840.03;5065258;28;20048;-77
2022/02/12 04:52:09;;;;;;;29.42;13.43;;;;;;;3.78;65.60;94848.31;5065151;28;20029;-77
2022/02/12 04:54:34;;;;;;;24.13;10.40;;;;;;;3.72;65.53;94859.81;5064744;28;20222;-77
2022/02/12 04:57:00;;;;;;;26.98;14.55;;;;;;;3.71;67.55;94855.63;5065090;28;20025;-77
2022/02/12 04:59:26;;;;;;;30.17;14.75;;;;;;;3.59;68.04;94876.03;5065011;28;20021;-77
2022/02/12 05:01:52;;;;;;;33.45;15.43;;;;;;;3.58;68.73;94872.59;5064643;28;20094;-77
2022/02/12 05:04:18;;;;;;;33.78;15.77;;;;;;;3.57;69.01;94872.84;5064872;28;20033;-76
2022/02/12 05:06:44;;;;;;;28.17;14.50;;;;;;;3.54;69.09;94868.84;5064932;28;20017;-77
2022/02/12 05:09:11;;;;;;;34.70;14.75;;;;;;;3.47;69.60;94860.31;5064802;28;20053;-77
2022/02/12 05:11:41;;;;;;;30.75;16.10;;;;;;;3.49;69.64;94867.97;5064653;28;20033;-77
2022/02/12 05:14:07;;;;;;;33.28;17.52;;;;;;;3.52;69.77;94876.22;5064476;28;20075;-77
2022/02/12 05:16:33;;;;;;;33.72;19.17;;;;;;;3.50;70.88;94874.84;5064343;28;20021;-77
2022/02/12 05:18:58;;;;;;;39.67;18.83;;;;;;;3.50;70.93;94877.47;5064520;28;20093;-75
2022/02/12 05:21:24;;;;;;;34.35;17.92;;;;;;;3.53;70.61;94887.53;5064430;28;20021;-76
2022/02/12 05:23:49;;;;;;;38.38;19.67;;;;;;;3.55;71.12;94874.91;5064240;28;20023;-76
2022/02/12 05:26:16;;;;;;;38.15;19.42;;;;;;;3.47;71.12;94877.97;5064467;28;20091;-76
2022/02/12 05:28:44;;;;;;;33.83;16.67;;;;;;;3.47;71.05;94888.50;5064295;28;20027;-75
2022/02/12 05:31:10;;;;;;;55.17;20.52;;;;;;;3.51;70.85;94894.91;5064189;28;20330;-76
2022/02/12 05:33:38;;;;;;;35.63;19.95;;;;;;;3.52;71.01;94897.31;5064187;28;20017;-77
2022/02/12 05:36:13;;;;;;;35.08;19.17;;;;;;;3.46;71.50;94898.28;5064208;28;20025;-77
2022/02/12 05:38:40;;;;;;;41.90;20.65;;;;;;;3.58;71.46;94901.59;5064164;28;20223;-77
2022/02/12 05:41:10;;;;;;;41.25;20.35;;;;;;;3.44;71.84;94902.16;5063660;28;20092;-76
2022/02/12 05:43:36;;;;;;;43.00;22.25;;;;;;;3.52;71.57;94904.38;5063793;28;20029;-76
2022/02/12 05:46:03;;;;;;;44.42;22.83;;;;;;;3.49;71.56;94903.03;5063991;28;20043;-75
2022/02/12 05:48:30;;;;;;;40.78;22.65;;;;;;;3.54;71.44;94904.94;5063544;28;20377;-76
2022/02/12 05:50:55;;;;;;;37.08;19.73;;;;;;;3.50;71.71;94904.66;5063616;28;20088;-76
2022/02/12 05:53:21;;;;;;;38.33;20.58;;;;;;;3.53;71.49;94908.63;5063958;28;20327;-79
2022/02/12 05:55:47;;;;;;;36.55;21.33;;;;;;;3.40;72.32;94920.31;5064099;28;20044;-79
2022/02/12 05:58:13;;;;;;;39.00;20.58;;;;;;;3.34;72.47;94916.81;5063112;28;20021;-80
2022/02/12 06:00:38;;;;;;;43.83;22.15;;;;;;;3.40;72.47;94918.47;5063717;28;20029;-80
2022/02/12 06:03:04;;;;;;;45.92;23.15;;;;;;;3.42;72.32;94923.50;5063873;28;20020;-75
2022/02/12 06:05:30;;;;;;;38.72;20.38;;;;;;;3.34;72.76;94924.72;5063598;28;20021;-75
2022/02/12 06:07:55;;;;;;;43.95;22.13;;;;;;;3.34;72.92;94916.03;5063353;28;20339;-75
2022/02/12 06:10:21;;;;;;;44.28;22.77;;;;;;;3.31;73.03;94922.53;5061980;28;20052;-75
2022/02/12 06:12:47;;;;;;;47.13;22.33;;;;;;;3.34;73.19;94932.63;5061815;28;20305;-81
2022/02/12 06:15:13;;;;;;;44.92;23.67;;;;;;;3.42;72.86;94940.13;5061954;28;20017;-76
2022/02/12 06:17:38;;;;;;;42.78;22.55;;;;;;;3.50;72.63;94944.19;5061988;28;20025;-76
2022/02/12 06:20:04;;;;;;;40.63;21.52;;;;;;;3.52;72.45;94944.75;5061870;28;20017;-74
2022/02/12 06:22:30;;;;;;;45.30;23.05;;;;;;;3.54;72.32;94945.31;5061683;28;20055;-75
2022/02/12 06:24:55;;;;;;;41.33;21.98;;;;;;;3.48;72.52;94943.63;5062825;28;20084;-75
2022/02/12 06:27:21;;;;;;;35.75;19.15;;;;;;;3.44;72.20;94931.16;5063215;28;20088;-75
2022/02/12 06:29:47;;;;;;;40.40;22.27;;;;;;;3.48;72.65;94932.28;5063220;28;20241;-75
2022/02/12 06:32:13;;;;;;;37.03;20.50;;;;;;;3.46;72.55;94943.06;5063051;28;20035;-75
2022/02/12 06:34:38;;;;;;;40.50;21.02;;;;;;;3.56;72.07;94942.41;5063155;28;20024;-77
2022/02/12 06:37:05;;;;;;;35.15;19.85;;;;;;;3.59;71.83;94949.84;5063293;28;20062;-77
2022/02/12 06:39:31;;;;;;;40.20;20.48;;;;;;;3.58;71.82;94971.97;5062966;28;20226;-77
2022/02/12 06:41:56;;;;;;;36.22;20.20;;;;;;;3.56;71.73;94955.59;5062721;28;20024;-77
2022/02/12 06:44:22;;;;;;;42.15;22.23;;;;;;;3.59;71.81;94957.75;5062805;28;20027;-77
2022/02/12 06:46:47;;;;;;;40.30;19.77;;;;;;;3.59;71.40;94971.72;5062950;28;20036;-78
2022/02/12 06:49:13;;;;;;;35.47;17.83;;;;;;;3.64;71.15;94968.34;5062853;28;20069;-79
2022/02/12 06:51:38;;;;;;;37.53;19.02;;;;;;;3.68;71.59;94964.19;5065421;28;20159;-90
2022/02/12 06:54:04;;;;;;;34.67;18.80;;;;;;;3.92;71.51;94982.47;5065724;28;20049;-86
2022/02/12 06:56:30;;;;;;;35.85;19.40;;;;;;;4.07;70.98;94987.94;5066752;28;20084;-88
2022/02/12 06:58:55;;;;;;;40.22;20.80;;;;;;;4.12;70.83;94985.38;5068799;28;20176;-88
2022/02/12 07:01:23;;;;;;;35.45;18.48;;;;;;;4.13;69.73;94981.69;5067299;28;20051;-88
2022/02/12 07:03:48;;;;;;;44.20;21.85;;;;;;;4.22;69.68;94993.41;5068185;28;20028;-88
2022/02/12 07:06:13;;;;;;;36.72;20.00;;;;;;;4.46;68.98;95001.09;5066827;28;20021;-86
2022/02/12 07:08:39;;;;;;;40.75;18.83;;;;;;;4.57;68.25;95000.16;5063344;28;20028;-79
2022/02/12 07:11:04;;;;;;;37.67;19.92;;;;;;;4.40;68.48;95008.16;5064029;28;20051;-81
2022/02/12 07:13:30;;;;;;;33.72;19.77;;;;;;;4.19;69.23;95012.38;5063361;28;20024;-82
2022/02/12 07:15:56;;;;;;;46.35;20.77;;;;;;;4.08;69.79;95021.19;5062844;28;20378;-76
2022/02/12 07:18:21;;;;;;;40.08;20.63;;;;;;;4.03;70.07;95023.78;5062918;28;20024;-75
2022/02/12 07:20:47;;;;;;;42.33;21.63;;;;;;;3.97;70.08;95020.28;5062836;28;20017;-75
2022/02/12 07:23:12;;;;;;;32.70;18.45;;;;;;;3.90;69.46;95022.25;5062699;28;20071;-75
2022/02/12 07:25:38;;;;;;;33.33;18.55;;;;;;;3.87;69.79;95021.94;5062634;28;20310;-74
2022/02/12 07:28:03;;;;;;;32.70;17.77;;;;;;;3.93;69.25;95023.59;5062098;28;20027;-74
2022/02/12 07:30:29;;;;;;;34.03;16.38;;;;;;;3.85;67.94;95037.22;5061868;28;20204;-73
2022/02/12 07:32:55;;;;;;;28.23;15.02;;;;;;;3.71;67.78;95024.38;5062184;28;20257;-72
2022/02/12 07:35:20;;;;;;;26.77;11.02;;;;;;;3.66;66.84;95029.56;5062173;28;20017;-73
2022/02/12 07:37:47;;;;;;;27.65;13.45;;;;;;;3.51;67.82;95038.03;5061868;28;20135;-73
2022/02/12 07:40:14;;;;;;;28.42;9.98;;;;;;;3.44;66.90;95032.13;5061967;28;20210;-73
2022/02/12 07:42:40;;;;;;;34.50;13.13;;;;;;;3.53;67.44;95035.16;5062298;28;20096;-82
2022/02/12 07:45:07;;;;;;;24.98;12.23;;;;;;;3.51;67.27;95037.25;5061979;28;20025;-73
2022/02/12 07:47:33;;;;;;;21.17;9.23;;;;;;;3.36;66.37;95043.88;5061913;28;20028;-72
2022/02/12 07:49:58;;;;;;;20.80;10.23;;;;;;;3.33;66.16;95035.63;5061955;28;20033;-75
2022/02/12 07:52:24;;;;;;;21.10;9.60;;;;;;;3.39;66.13;95032.03;5061614;28;20044;-74
2022/02/12 07:54:49;;;;;;;27.13;11.52;;;;;;;3.41;66.26;95038.66;5061890;28;20020;-75
2022/02/12 07:57:15;;;;;;;20.38;10.02;;;;;;;3.46;66.61;95039.78;5061761;28;20028;-74
2022/02/12 07:59:40;;;;;;;18.80;9.55;;;;;;;3.45;66.18;95032.94;5061748;28;20397;-75
2022/02/12 08:02:07;;;;;;;33.67;10.90;;;;;;;3.64;66.83;95036.13;5061776;28;20025;-76
2022/02/12 08:04:32;;;;;;;17.00;8.27;;;;;;;3.70;64.99;95045.69;5061995;28;20025;-74
2022/02/12 08:09:42;;;;;;;13.57;8.07;;;;;;;3.65;63.73;95038.53;5065776;28;20281;-77
2022/02/12 08:12:13;;;;;;;16.65;7.20;;;;;;;3.68;63.27;95029.31;5065403;28;20041;-74
2022/02/12 08:14:43;;;;;;;13.70;8.10;;;;;;;3.75;63.76;95022.84;5065668;28;20390;-74
2022/02/12 08:17:09;;;;;;;20.63;8.43;;;;;;;3.71;63.52;95027.00;5065631;28;20028;-74
2022/02/12 08:19:37;;;;;;;15.20;7.43;;;;;;;3.73;63.35;95010.94;5065612;28;20039;-74
2022/02/12 08:22:05;;;;;;;11.48;7.40;;;;;;;3.81;62.88;95015.81;5065256;28;20025;-76
2022/02/12 08:24:32;;;;;;;13.57;7.32;;;;;;;3.97;62.59;95027.38;5065594;28;20043;-76
2022/02/12 08:26:58;;;;;;;15.35;7.60;;;;;;;4.09;62.33;95017.53;5065579;28;20033;-76
2022/02/12 08:29:27;;;;;;;19.00;6.70;;;;;;;4.14;61.56;95020.22;5065508;28;20376;-76
2022/02/12 08:31:53;;;;;;;8.43;4.95;;;;;;;4.10;61.34;95019.13;5065344;28;20021;-76
2022/02/12 08:34:20;;;;;;;13.48;6.75;;;;;;;4.22;61.35;95026.94;5065529;28;20066;-76
2022/02/12 08:36:46;;;;;;;15.10;5.95;;;;;;;4.12;59.96;95026.78;5065351;28;20016;-76
2022/02/12 08:39:11;;;;;;;11.05;5.00;;;;;;;4.13;59.63;95031.84;5065208;28;20035;-74
2022/02/12 08:41:37;;;;;;;9.85;5.18;;;;;;;4.22;59.51;95032.22;5065002;28;20025;-77
2022/02/12 08:44:02;;;;;;;10.75;5.35;;;;;;;4.30;59.11;95029.13;5064941;28;20021;-76
2022/02/12 08:46:28;;;;;;;11.10;4.72;;;;;;;4.27;58.56;95031.47;5065119;28;20098;-78
2022/02/12 08:48:53;;;;;;;19.40;5.38;;;;;;;4.38;59.25;95034.00;5065094;28;20021;-77
2022/02/12 08:51:18;;;;;;;15.55;4.78;;;;;;;4.47;57.86;95034.34;5065190;28;20017;-77
2022/02/12 08:53:44;;;;;;;15.70;5.60;;;;;;;4.54;57.66;95029.72;5065007;28;20021;-76
2022/02/12 08:56:10;;;;;;;8.55;4.95;;;;;;;4.62;57.82;95028.47;5064752;28;20028;-76
2022/02/12 08:58:35;;;;;;;15.00;5.32;;;;;;;4.75;57.32;95041.28;5064923;28;20024;-76
2022/02/12 09:01:01;;;;;;;12.38;4.15;;;;;;;4.78;56.29;95055.84;5064717;28;20047;-76
2022/02/12 09:03:26;;;;;;;15.85;5.88;;;;;;;4.74;56.40;95044.19;5064810;28;20126;-78
2022/02/12 09:05:51;;;;;;;9.25;4.28;;;;;;;4.80;55.48;95038.72;5064633;28;20025;-76
2022/02/12 09:08:17;;;;;;;8.85;3.50;;;;;;;4.77;56.13;95038.41;5064938;28;20219;-76
2022/02/12 09:10:43;;;;;;;6.65;4.45;;;;;;;4.77;55.89;95044.50;5064629;28;20025;-78
2022/02/12 09:13:09;;;;;;;8.25;4.90;;;;;;;4.79;55.74;95033.69;5064646;28;20060;-80
2022/02/12 09:15:35;;;;;;;13.77;3.72;;;;;;;4.69;55.86;95049.41;5064570;28;20035;-77
2022/02/12 09:18:02;;;;;;;6.50;3.30;;;;;;;4.86;55.84;95039.56;5063536;28;20056;-77
2022/02/12 09:20:27;;;;;;;10.38;3.85;;;;;;;4.95;54.92;95045.22;5064490;28;20374;-76
2022/02/12 09:22:53;;;;;;;10.77;4.13;;;;;;;5.01;54.64;95041.59;5064583;28;20035;-76
2022/02/12 09:25:18;;;;;;;18.38;3.92;;;;;;;5.14;54.91;95043.81;5064880;28;20319;-76
2022/02/12 09:27:44;;;;;;;10.85;4.15;;;;;;;5.28;53.85;95043.44;5064390;28;20047;-76
2022/02/12 09:30:10;;;;;;;11.40;4.00;;;;;;;5.27;54.04;95044.47;5064123;28;20025;-77
2022/02/12 09:32:35;;;;;;;6.65;3.70;;;;;;;5.28;53.54;95046.84;5064225;28;20079;-77
2022/02/12 09:35:01;;;;;;;11.63;3.65;;;;;;;5.40;53.53;95058.06;5064307;28;20021;-77
2022/02/12 09:37:26;;;;;;;9.45;3.72;;;;;;;5.41;52.93;95054.41;5064251;28;20028;-76
2022/02/12 09:39:52;;;;;;;12.32;3.90;;;;;;;5.41;53.45;95045.66;5064105;28;20096;-75
2022/02/12 09:42:18;;;;;;;12.30;4.13;;;;;;;5.38;53.42;95040.88;5063929;28;20067;-75
2022/02/12 09:44:43;;;;;;;7.57;3.75;;;;;;;5.42;53.41;95044.63;5063975;28;20306;-76
2022/02/12 09:47:39;;;;;;;11.13;3.72;;;;;;;5.47;52.55;95035.91;5063949;28;20313;-78
2022/02/12 09:50:06;;;;;;;8.23;3.50;;;;;;;5.58;52.38;95041.03;5064088;28;20223;-76
2022/02/12 09:52:33;;;;;;;7.53;3.63;;;;;;;5.61;52.80;95037.88;5063861;28;20041;-77
2022/02/12 09:54:59;;;;;;;5.50;2.85;;;;;;;5.65;52.37;95034.75;5063925;28;20095;-77
2022/02/12 09:57:25;;;;;;;5.07;3.10;;;;;;;5.77;51.77;95028.22;5063889;28;20214;-75
2022/02/12 09:59:59;;;;;;;16.77;3.90;;;;;;;5.92;51.50;95026.72;5062569;28;20308;-76
2022/02/12 10:02:25;;;;;;;12.85;4.05;;;;;;;5.96;51.65;95019.91;5063616;28;20032;-76
2022/02/12 10:05:28;;;;;;;7.10;3.63;;;;;;;6.12;50.91;95029.53;5063898;28;20028;-77
2022/02/12 10:08:00;;;;;;;10.23;3.58;;;;;;;6.14;50.33;95013.41;5063720;28;20315;-77
2022/02/12 10:10:27;;;;;;;15.88;4.63;;;;;;;6.20;50.93;95017.66;5063688;28;20025;-76
2022/02/12 10:13:07;;;;;;;9.80;3.53;;;;;;;6.23;50.43;95015.31;5063206;28;20049;-74
2022/02/12 10:15:34;;;;;;;10.35;4.70;;;;;;;6.20;50.50;95018.47;5063245;28;20033;-77
2022/02/12 10:18:01;;;;;;;11.18;3.80;;;;;;;6.24;50.51;95005.50;5063568;28;20029;-79
2022/02/12 10:20:33;;;;;;;10.13;3.50;;;;;;;6.30;49.71;95014.28;5063246;28;20044;-75
2022/02/12 10:23:03;;;;;;;10.20;3.90;;;;;;;6.22;50.25;95026.94;5063217;28;20322;-76
2022/02/12 10:25:29;;;;;;;9.45;3.58;;;;;;;6.10;50.37;95015.75;5063457;28;20223;-76
2022/02/12 10:27:55;;;;;;;7.45;3.42;;;;;;;6.25;51.35;95009.75;5063295;28;20029;-76
2022/02/12 10:30:24;;;;;;;10.32;4.57;;;;;;;6.29;50.52;95007.38;5063493;28;20021;-76
2022/02/12 10:32:52;;;;;;;9.93;3.70;;;;;;;6.26;50.86;95005.25;5063096;28;20013;-76
2022/02/12 10:35:17;;;;;;;8.40;3.63;;;;;;;6.25;51.40;94995.72;5063485;28;20144;-77
2022/02/12 10:37:45;;;;;;;7.70;3.88;;;;;;;6.42;51.89;94991.03;5063140;28;20039;-79
2022/02/12 10:40:11;;;;;;;10.60;4.10;;;;;;;6.52;51.38;94998.22;5063160;28;20219;-77
2022/02/12 10:42:43;;;;;;;8.02;3.58;;;;;;;6.52;50.22;94987.63;5062844;28;20016;-77
2022/02/12 10:45:18;;;;;;;7.80;3.78;;;;;;;6.59;50.06;94978.41;5061669;28;20025;-77
2022/02/12 10:47:48;;;;;;;9.77;3.63;;;;;;;6.73;48.96;94985.84;5062831;28;20104;-76
2022/02/12 10:50:15;;;;;;;9.48;3.47;;;;;;;6.81;49.69;94978.16;5062849;28;20088;-79
2022/02/12 10:52:44;;;;;;;6.45;3.63;;;;;;;6.91;50.21;94995.94;5061612;28;20020;-76
2022/02/12 10:55:34;;;;;;;7.68;3.75;;;;;;;7.03;49.95;94980.59;5062729;28;20024;-79
2022/02/12 10:58:07;;;;;;;12.02;4.20;;;;;;;7.23;48.64;94971.09;5062199;28;20383;-76
2022/02/12 11:00:35;;;;;;;5.95;3.50;;;;;;;7.28;47.37;94980.91;5062518;28;20028;-77
2022/02/12 11:03:05;;;;;;;9.52;4.78;;;;;;;7.28;46.78;94978.25;5062776;28;20031;-74
2022/02/12 11:05:32;;;;;;;13.02;5.38;;;;;;;7.25;47.33;94965.53;5062626;28;20047;-77
2022/02/12 11:07:58;;;;;;;9.32;3.80;;;;;;;7.33;46.17;94965.78;5062275;28;20028;-76
2022/02/12 11:10:24;;;;;;;13.32;3.88;;;;;;;7.36;46.54;94975.84;5062358;28;20021;-74
2022/02/12 11:12:51;;;;;;;15.60;5.10;;;;;;;7.32;46.38;94974.00;5062389;28;20045;-76
2022/02/12 11:15:17;;;;;;;7.55;3.65;;;;;;;7.32;45.53;94969.50;5062581;28;20029;-76
2022/02/12 11:17:44;;;;;;;12.23;4.13;;;;;;;7.48;45.23;94961.53;5062476;28;20037;-76
2022/02/12 11:20:11;;;;;;;7.45;3.80;;;;;;;7.51;44.51;94974.25;5062329;28;20067;-76
2022/02/12 11:22:39;;;;;;;8.13;3.63;;;;;;;7.54;43.82;94965.78;5062351;28;20021;-76
2022/02/12 11:25:36;;;;;;;15.88;4.20;;;;;;;7.69;44.09;94968.41;5062287;28;20024;-76
2022/02/12 11:28:06;;;;;;;9.88;4.53;;;;;;;7.72;43.81;94957.28;5062501;28;20020;-76
2022/02/12 11:30:32;;;;;;;9.95;3.97;;;;;;;7.74;43.83;94965.75;5062261;28;20020;-75
2022/02/12 11:33:00;;;;;;;10.73;4.03;;;;;;;7.67;43.66;94959.13;5061974;28;20114;-75
2022/02/12 11:35:27;;;;;;;8.80;3.65;;;;;;;7.82;43.19;94956.47;5062211;28;20223;-74
2022/02/12 11:37:53;;;;;;;11.02;4.50;;;;;;;7.86;42.84;94964.66;5062151;28;20021;-75
2022/02/12 11:40:24;;;;;;;11.68;4.50;;;;;;;7.83;42.78;94948.22;5061756;28;20029;-74